createdAt,value
2018-11-14T00:00:15.480Z,8.98
2018-11-14T00:02:43.569Z,8.96
2018-11-14T00:05:11.663Z,8.91
2018-11-14T00:07:39.772Z,8.91
2018-11-14T00:10:08.543Z,8.84
2018-11-14T00:12:36.616Z,8.82
2018-11-14T00:15:05.148Z,8.79
2018-11-14T00:17:33.252Z,8.78
2018-11-14T00:20:01.362Z,8.79
2018-11-14T00:22:29.466Z,8.79
2018-11-14T00:24:57.561Z,8.68
2018-11-14T00:27:25.703Z,8.62
2018-11-14T00:29:53.820Z,8.59
2018-11-14T00:32:21.947Z,8.58
2018-11-14T00:34:50.110Z,8.58
2018-11-14T00:37:18.210Z,8.58
2018-11-14T00:39:46.324Z,8.58
2018-11-14T00:42:14.460Z,8.57
2018-11-14T00:44:42.602Z,8.56
2018-11-14T00:47:10.728Z,8.55
2018-11-14T00:49:38.939Z,8.54
2018-11-14T00:52:07.059Z,8.52
2018-11-14T00:54:35.209Z,8.50
2018-11-14T00:57:03.367Z,8.50
2018-11-14T00:59:31.493Z,8.53
2018-11-14T01:01:59.636Z,8.61
2018-11-14T01:04:27.733Z,8.72
2018-11-14T01:06:55.857Z,8.83
2018-11-14T01:09:23.980Z,8.91
2018-11-14T01:11:52.092Z,8.98
2018-11-14T01:14:20.209Z,9.04
2018-11-14T01:16:48.341Z,9.09
2018-11-14T01:19:16.515Z,9.14
2018-11-14T01:21:44.769Z,9.10
2018-11-14T01:24:12.833Z,9.10
2018-11-14T01:26:40.973Z,9.15
2018-11-14T01:29:09.132Z,9.23
2018-11-14T01:31:37.283Z,9.27
2018-11-14T01:34:05.433Z,9.32
2018-11-14T01:36:33.535Z,9.37
2018-11-14T01:39:01.684Z,9.39
2018-11-14T01:41:29.807Z,9.38
2018-11-14T01:43:57.944Z,9.39
2018-11-14T01:46:26.065Z,9.36
2018-11-14T01:48:54.221Z,9.39
2018-11-14T01:51:22.377Z,9.41
2018-11-14T01:53:50.522Z,9.46
2018-11-14T01:56:18.679Z,9.50
2018-11-14T01:58:46.827Z,9.52
2018-11-14T02:01:14.980Z,9.55
2018-11-14T02:03:43.117Z,9.56
2018-11-14T02:06:11.256Z,9.56
2018-11-14T02:08:39.393Z,9.54
2018-11-14T02:11:07.535Z,9.54
2018-11-14T02:13:35.679Z,9.55
2018-11-14T02:16:03.828Z,9.52
2018-11-14T02:18:31.996Z,9.50
2018-11-14T02:21:00.148Z,9.38
2018-11-14T02:23:28.298Z,9.30
2018-11-14T02:25:56.495Z,9.18
2018-11-14T02:28:24.669Z,9.16
2018-11-14T02:30:52.839Z,9.18
2018-11-14T02:33:21.003Z,9.21
2018-11-14T02:35:49.149Z,9.24
2018-11-14T02:38:17.291Z,9.24
2018-11-14T02:40:45.447Z,9.17
2018-11-14T02:43:13.624Z,9.11
2018-11-14T02:45:41.791Z,9.14
2018-11-14T02:48:09.949Z,9.09
2018-11-14T02:50:38.132Z,9.09
2018-11-14T02:53:06.344Z,9.13
2018-11-14T02:55:34.462Z,9.17
2018-11-14T02:58:02.547Z,9.17
2018-11-14T03:00:30.632Z,9.17
2018-11-14T03:02:58.725Z,9.16
2018-11-14T03:05:26.813Z,9.15
2018-11-14T03:07:54.914Z,9.17
2018-11-14T03:10:23.004Z,9.19
2018-11-14T03:12:51.104Z,9.19
2018-11-14T03:15:20.958Z,9.19
2018-11-14T03:17:49.086Z,9.18
2018-11-14T03:20:19.562Z,9.17
2018-11-14T03:22:47.720Z,9.14
2018-11-14T03:25:16.020Z,9.12
2018-11-14T03:27:44.174Z,9.12
2018-11-14T03:30:15.022Z,9.07
2018-11-14T03:32:43.732Z,9.04
2018-11-14T03:35:12.717Z,9.00
2018-11-14T03:37:40.808Z,8.99
2018-11-14T03:40:10.801Z,8.99
2018-11-14T03:42:38.984Z,8.99
2018-11-14T03:45:07.965Z,8.98
2018-11-14T03:47:36.056Z,8.98
2018-11-14T03:50:04.428Z,9.01
2018-11-14T03:52:32.530Z,9.06
2018-11-14T03:55:00.655Z,9.09
2018-11-14T03:57:28.732Z,9.10
2018-11-14T03:59:56.830Z,9.06
2018-11-14T04:02:24.923Z,9.04
2018-11-14T04:04:53.040Z,9.04
2018-11-14T04:07:21.120Z,9.04
2018-11-14T04:09:49.213Z,9.03
2018-11-14T04:12:17.298Z,9.02
2018-11-14T04:14:45.391Z,9.01
2018-11-14T04:17:13.475Z,9.03
2018-11-14T04:19:41.571Z,9.03
2018-11-14T04:22:09.650Z,9.03
2018-11-14T04:24:37.742Z,9.02
2018-11-14T04:27:05.857Z,9.02
2018-11-14T04:29:33.945Z,9.03
2018-11-14T04:32:02.014Z,9.03
2018-11-14T04:34:30.099Z,9.03
2018-11-14T04:36:58.164Z,9.00
2018-11-14T04:39:26.245Z,8.98
2018-11-14T04:41:54.318Z,8.94
2018-11-14T04:44:22.409Z,8.93
2018-11-14T04:46:50.483Z,8.89
2018-11-14T04:49:18.561Z,8.87
2018-11-14T04:51:46.653Z,8.84
2018-11-14T04:54:14.734Z,8.82
2018-11-14T04:56:42.815Z,8.78
2018-11-14T04:59:10.903Z,8.75
2018-11-14T05:01:38.977Z,8.73
2018-11-14T05:04:07.052Z,8.67
2018-11-14T05:06:35.224Z,8.64
2018-11-14T05:09:03.483Z,8.61
2018-11-14T05:11:31.558Z,8.60
2018-11-14T05:13:59.636Z,8.63
2018-11-14T05:16:27.708Z,8.63
2018-11-14T05:18:55.776Z,8.61
2018-11-14T05:21:23.863Z,8.61
2018-11-14T05:23:51.948Z,8.60
2018-11-14T05:26:20.025Z,8.58
2018-11-14T05:28:48.129Z,8.56
2018-11-14T05:31:16.225Z,8.58
2018-11-14T05:33:44.305Z,8.60
2018-11-14T05:36:12.406Z,8.60
2018-11-14T05:38:40.486Z,8.63
2018-11-14T05:41:08.576Z,8.61
2018-11-14T05:43:36.661Z,8.59
2018-11-14T05:46:04.984Z,8.56
2018-11-14T05:48:33.079Z,8.55
2018-11-14T05:51:01.272Z,8.56
2018-11-14T05:53:29.358Z,8.56
2018-11-14T05:55:57.455Z,8.56
2018-11-14T05:58:25.542Z,8.53
2018-11-14T06:00:53.640Z,8.52
2018-11-14T06:03:21.721Z,8.52
2018-11-14T06:05:49.807Z,8.53
2018-11-14T06:08:17.895Z,8.52
2018-11-14T06:10:45.988Z,8.52
2018-11-14T06:13:14.120Z,8.54
2018-11-14T06:15:42.219Z,8.57
2018-11-14T06:18:10.301Z,8.60
2018-11-14T06:20:38.375Z,8.61
2018-11-14T06:23:06.486Z,8.64
2018-11-14T06:25:35.743Z,8.62
2018-11-14T06:28:05.790Z,8.62
2018-11-14T06:30:34.555Z,8.61
2018-11-14T06:33:03.560Z,8.62
2018-11-14T06:35:31.640Z,8.62
2018-11-14T06:37:59.733Z,8.61
2018-11-14T06:40:27.837Z,8.64
2018-11-14T06:42:55.931Z,8.67
2018-11-14T06:45:25.284Z,8.72
2018-11-14T06:47:54.559Z,8.76
2018-11-14T06:50:22.694Z,8.80
2018-11-14T06:52:52.337Z,8.82
2018-11-14T06:55:20.807Z,8.77
2018-11-14T06:57:48.901Z,8.71
2018-11-14T07:00:23.155Z,8.67
2018-11-14T07:02:51.816Z,8.69
2018-11-14T07:05:19.989Z,8.70
2018-11-14T07:07:48.017Z,8.78
2018-11-14T07:10:18.791Z,8.85
2018-11-14T07:12:46.862Z,8.90
2018-11-14T07:15:16.261Z,8.95
2018-11-14T07:17:45.049Z,8.99
2018-11-14T07:20:20.298Z,9.02
2018-11-14T07:22:48.381Z,9.06
2018-11-14T07:25:17.046Z,9.08
2018-11-14T07:27:45.413Z,9.09
2018-11-14T07:30:17.693Z,9.10
2018-11-14T07:32:47.083Z,9.11
2018-11-14T07:35:15.987Z,9.14
2018-11-14T07:37:48.491Z,9.11
2018-11-14T07:40:16.572Z,9.07
2018-11-14T07:42:44.647Z,9.03
2018-11-14T07:45:14.010Z,8.97
2018-11-14T07:47:42.281Z,8.93
2018-11-14T07:50:15.362Z,8.93
2018-11-14T07:52:44.296Z,8.96
2018-11-14T07:55:12.859Z,8.98
2018-11-14T07:57:40.967Z,8.97
2018-11-14T08:00:13.535Z,8.99
2018-11-14T08:02:41.632Z,9.01
2018-11-14T08:05:09.825Z,9.02
2018-11-14T08:07:37.931Z,9.03
2018-11-14T08:10:08.067Z,9.02
2018-11-14T08:12:36.156Z,9.04
2018-11-14T08:15:04.289Z,9.09
2018-11-14T08:17:32.391Z,9.10
2018-11-14T08:20:00.861Z,9.13
2018-11-14T08:22:28.945Z,9.19
2018-11-14T08:24:57.080Z,9.27
2018-11-14T08:27:25.177Z,9.34
2018-11-14T08:29:53.262Z,9.32
2018-11-14T08:32:21.347Z,9.30
2018-11-14T08:34:49.419Z,9.22
2018-11-14T08:37:17.494Z,9.07
2018-11-14T08:39:45.570Z,9.06
2018-11-14T08:42:13.654Z,9.07
2018-11-14T08:44:41.729Z,9.09
2018-11-14T08:47:09.911Z,9.19
2018-11-14T08:49:37.997Z,9.11
2018-11-14T08:52:06.103Z,9.07
2018-11-14T08:54:34.185Z,9.08
2018-11-14T08:57:02.275Z,8.99
2018-11-14T08:59:30.350Z,9.05
2018-11-14T09:01:58.438Z,9.08
2018-11-14T09:04:26.510Z,9.13
2018-11-14T09:06:54.599Z,9.21
2018-11-14T09:09:22.671Z,9.32
2018-11-14T09:11:50.756Z,9.40
2018-11-14T09:14:18.880Z,9.43
2018-11-14T09:16:46.933Z,9.37
2018-11-14T09:19:15.002Z,9.30
2018-11-14T09:21:43.173Z,9.27
2018-11-14T09:24:11.242Z,9.28
2018-11-14T09:26:39.320Z,9.24
2018-11-14T09:29:07.407Z,9.25
2018-11-14T09:31:35.477Z,9.32
2018-11-14T09:34:03.638Z,9.32
2018-11-14T09:36:31.642Z,9.32
2018-11-14T09:38:59.729Z,9.39
2018-11-14T09:41:27.895Z,9.48
2018-11-14T09:43:55.927Z,9.55
2018-11-14T09:46:24.051Z,9.62
2018-11-14T09:48:52.134Z,9.79
2018-11-14T09:51:20.206Z,9.73
2018-11-14T09:53:48.287Z,9.64
2018-11-14T09:56:16.400Z,9.53
2018-11-14T09:58:44.489Z,9.62
2018-11-14T10:01:12.507Z,9.66
2018-11-14T10:03:40.618Z,9.58
2018-11-14T10:06:08.678Z,9.62
2018-11-14T10:08:36.811Z,9.64
2018-11-14T10:11:05.209Z,9.65
2018-11-14T10:13:33.286Z,9.79
2018-11-14T10:16:01.358Z,9.96
2018-11-14T10:18:29.511Z,9.89
2018-11-14T10:20:57.550Z,9.85
2018-11-14T10:23:25.632Z,9.82
2018-11-14T10:25:53.707Z,9.75
2018-11-14T10:28:21.821Z,9.91
2018-11-14T10:30:49.892Z,9.98
2018-11-14T10:33:17.969Z,10.20
2018-11-14T10:35:46.046Z,10.10
2018-11-14T10:38:14.121Z,10.04
2018-11-14T10:40:42.206Z,10.04
2018-11-14T10:43:10.376Z,10.04
2018-11-14T10:45:38.365Z,10.00
2018-11-14T10:48:06.442Z,10.13
2018-11-14T10:50:34.527Z,10.19
2018-11-14T10:53:02.621Z,10.42
2018-11-14T10:55:30.709Z,10.44
2018-11-14T10:57:58.867Z,10.48
2018-11-14T11:00:32.546Z,10.57
2018-11-14T11:03:06.894Z,10.73
2018-11-14T11:05:44.083Z,10.65
2018-11-14T11:08:18.544Z,10.61
2018-11-14T11:10:48.167Z,10.70
2018-11-14T11:13:21.571Z,10.62
2018-11-14T11:15:55.086Z,10.54
2018-11-14T11:18:26.403Z,10.42
2018-11-14T11:20:54.546Z,10.49
2018-11-14T11:23:22.715Z,10.44
2018-11-14T11:25:50.741Z,10.43
2018-11-14T11:28:18.845Z,10.28
2018-11-14T11:30:47.030Z,10.33
2018-11-14T11:33:15.038Z,10.22
2018-11-14T11:35:43.148Z,10.24
2018-11-14T11:38:11.246Z,10.38
2018-11-14T11:40:39.343Z,10.44
2018-11-14T11:43:07.462Z,10.55
2018-11-14T11:45:36.019Z,10.64
2018-11-14T11:48:04.119Z,10.57
2018-11-14T11:50:32.333Z,10.77
2018-11-14T11:53:00.858Z,10.57
2018-11-14T11:55:28.934Z,10.48
2018-11-14T11:57:57.057Z,10.50
2018-11-14T12:00:25.261Z,10.65
2018-11-14T12:02:53.245Z,10.74
2018-11-14T12:05:21.331Z,10.79
2018-11-14T12:07:49.428Z,10.69
2018-11-14T12:10:17.514Z,10.65
2018-11-14T12:12:46.063Z,10.48
2018-11-14T12:15:14.630Z,10.57
2018-11-14T12:17:43.256Z,10.54
2018-11-14T12:20:12.923Z,10.55
2018-11-14T12:22:41.621Z,10.48
2018-11-14T12:25:11.728Z,10.37
2018-11-14T12:27:39.953Z,10.39
2018-11-14T12:30:11.093Z,10.50
2018-11-14T12:32:39.335Z,10.56
2018-11-14T12:35:08.653Z,10.63
2018-11-14T12:37:36.689Z,10.71
2018-11-14T12:40:05.182Z,10.76
2018-11-14T12:42:33.281Z,10.84
2018-11-14T12:45:01.462Z,10.89
2018-11-14T12:47:29.478Z,10.94
2018-11-14T12:49:57.644Z,11.00
2018-11-14T12:52:25.745Z,11.02
2018-11-14T12:54:53.824Z,11.10
2018-11-14T12:57:21.932Z,11.09
2018-11-14T12:59:50.030Z,11.04
2018-11-14T13:02:18.159Z,11.04
2018-11-14T13:04:46.218Z,11.13
2018-11-14T13:07:14.358Z,11.21
2018-11-14T13:09:42.449Z,11.18
2018-11-14T13:12:10.946Z,11.11
2018-11-14T13:14:39.089Z,10.96
2018-11-14T13:17:07.174Z,11.00
2018-11-14T13:19:35.337Z,11.05
2018-11-14T13:22:03.515Z,11.06
2018-11-14T13:24:31.823Z,11.16
2018-11-14T13:27:00.303Z,11.13
2018-11-14T13:29:28.685Z,11.16
2018-11-14T13:31:56.753Z,11.14
2018-11-14T13:34:25.145Z,11.14
2018-11-14T13:36:53.233Z,11.16
2018-11-14T13:39:21.327Z,11.16
2018-11-14T13:41:49.506Z,11.20
2018-11-14T13:44:17.593Z,11.18
2018-11-14T13:46:45.673Z,11.19
2018-11-14T13:49:14.178Z,11.24
2018-11-14T13:51:41.914Z,11.32
2018-11-14T13:54:09.998Z,11.23
2018-11-14T13:56:38.087Z,11.17
2018-11-14T13:59:06.498Z,11.13
2018-11-14T14:01:34.580Z,11.14
2018-11-14T14:04:02.669Z,11.08
2018-11-14T14:06:30.954Z,10.99
2018-11-14T14:08:59.083Z,10.98
2018-11-14T14:11:27.349Z,10.94
2018-11-14T14:14:00.933Z,10.92
2018-11-14T14:16:29.165Z,10.76
2018-11-14T14:18:57.089Z,10.69
2018-11-14T14:21:25.381Z,10.70
2018-11-14T14:23:53.460Z,10.65
2018-11-14T14:26:21.551Z,10.51
2018-11-14T14:28:49.649Z,10.52
2018-11-14T14:31:17.747Z,10.47
2018-11-14T14:33:45.839Z,10.41
2018-11-14T14:36:13.943Z,10.47
2018-11-14T14:38:42.034Z,10.50
2018-11-14T14:41:10.132Z,10.47
2018-11-14T14:43:38.293Z,10.39
2018-11-14T14:46:06.590Z,10.41
2018-11-14T14:48:34.695Z,10.42
2018-11-14T14:51:02.829Z,10.41
2018-11-14T14:53:30.915Z,10.39
2018-11-14T14:55:59.012Z,10.45
2018-11-14T14:58:27.104Z,10.51
2018-11-14T15:00:55.212Z,10.57
2018-11-14T15:03:23.305Z,10.63
2018-11-14T15:05:51.404Z,10.67
2018-11-14T15:08:19.501Z,10.71
2018-11-14T15:10:47.590Z,10.71
2018-11-14T15:13:15.678Z,10.75
2018-11-14T15:15:43.886Z,10.75
2018-11-14T15:18:11.871Z,10.77
2018-11-14T15:20:39.989Z,10.77
2018-11-14T15:23:08.078Z,10.77
2018-11-14T15:25:36.167Z,10.75
2018-11-14T15:28:04.272Z,10.73
2018-11-14T15:30:32.350Z,10.74
2018-11-14T15:33:00.444Z,10.78
2018-11-14T15:35:28.523Z,10.69
2018-11-14T15:37:56.702Z,10.66
2018-11-14T15:40:25.938Z,10.66
2018-11-14T15:42:54.094Z,10.67
2018-11-14T15:45:23.627Z,10.63
2018-11-14T15:47:51.800Z,10.67
2018-11-14T15:50:21.094Z,10.64
2018-11-14T15:52:50.000Z,10.67
2018-11-14T15:55:19.084Z,10.66
2018-11-14T15:57:47.288Z,10.72
2018-11-14T16:00:17.479Z,10.71
2018-11-14T16:02:45.568Z,10.69
2018-11-14T16:05:15.165Z,10.69
2018-11-14T16:07:44.274Z,10.69
2018-11-14T16:10:13.462Z,10.68
2018-11-14T16:12:42.188Z,10.69
2018-11-14T16:15:12.061Z,10.71
2018-11-14T16:17:40.543Z,10.73
2018-11-14T16:20:10.265Z,10.79
2018-11-14T16:22:38.419Z,10.83
2018-11-14T16:25:07.896Z,10.86
2018-11-14T16:27:35.960Z,10.88
2018-11-14T16:30:05.124Z,10.90
2018-11-14T16:32:33.265Z,11.00
2018-11-14T16:35:01.363Z,10.97
2018-11-14T16:37:29.452Z,10.83
2018-11-14T16:39:57.564Z,10.81
2018-11-14T16:42:25.655Z,10.81
2018-11-14T16:44:53.767Z,10.79
2018-11-14T16:47:21.861Z,10.85
2018-11-14T16:49:49.959Z,10.83
2018-11-14T16:52:18.056Z,10.81
2018-11-14T16:54:46.155Z,10.85
2018-11-14T16:57:14.251Z,10.85
2018-11-14T16:59:42.347Z,10.86
2018-11-14T17:02:10.493Z,10.87
2018-11-14T17:04:38.591Z,10.89
2018-11-14T17:07:06.725Z,10.91
2018-11-14T17:09:34.824Z,10.97
2018-11-14T17:12:02.917Z,10.92
2018-11-14T17:14:31.016Z,10.91
2018-11-14T17:16:59.103Z,10.90
2018-11-14T17:19:27.208Z,10.89
2018-11-14T17:21:55.296Z,10.89
2018-11-14T17:24:23.410Z,10.93
2018-11-14T17:26:51.485Z,10.92
2018-11-14T17:29:19.595Z,10.93
2018-11-14T17:31:47.696Z,10.95
2018-11-14T17:34:15.814Z,10.93
2018-11-14T17:36:43.902Z,10.91
2018-11-14T17:39:13.294Z,10.85
2018-11-14T17:41:41.857Z,10.83
2018-11-14T17:44:09.910Z,10.81
2018-11-14T17:46:38.012Z,10.80
2018-11-14T17:49:06.261Z,10.86
2018-11-14T17:51:34.369Z,10.80
2018-11-14T17:54:02.507Z,10.79
2018-11-14T17:56:30.607Z,10.80
2018-11-14T17:58:58.720Z,10.75
2018-11-14T18:01:26.822Z,10.76
2018-11-14T18:03:54.910Z,10.78
2018-11-14T18:06:23.082Z,10.81
2018-11-14T18:08:51.178Z,10.82
2018-11-14T18:11:19.338Z,10.86
2018-11-14T18:13:47.432Z,10.85
2018-11-14T18:16:15.534Z,10.85
2018-11-14T18:18:43.635Z,10.87
2018-11-14T18:21:11.730Z,10.79
2018-11-14T18:23:39.818Z,10.76
2018-11-14T18:26:07.926Z,10.75
2018-11-14T18:28:36.027Z,10.78
2018-11-14T18:31:04.139Z,10.88
2018-11-14T18:33:32.225Z,10.76
2018-11-14T18:36:00.321Z,10.74
2018-11-14T18:38:28.512Z,10.70
2018-11-14T18:40:56.706Z,10.72
2018-11-14T18:43:24.793Z,10.74
2018-11-14T18:45:52.948Z,10.73
2018-11-14T18:48:20.991Z,10.70
2018-11-14T18:50:49.096Z,10.68
2018-11-14T18:53:17.212Z,10.69
2018-11-14T18:55:45.277Z,10.74
2018-11-14T18:58:13.361Z,10.75
2018-11-14T19:00:41.461Z,10.72
2018-11-14T19:03:09.549Z,10.67
2018-11-14T19:05:38.488Z,10.62
2018-11-14T19:08:06.581Z,10.58
2018-11-14T19:10:35.045Z,10.56
2018-11-14T19:13:03.137Z,10.53
2018-11-14T19:15:32.625Z,10.49
2018-11-14T19:18:00.754Z,10.47
2018-11-14T19:20:30.089Z,10.57
2018-11-14T19:22:58.989Z,10.44
2018-11-14T19:25:29.511Z,10.35
2018-11-14T19:27:57.656Z,10.32
2018-11-14T19:30:28.083Z,10.28
2018-11-14T19:32:56.710Z,10.29
2018-11-14T19:35:24.785Z,10.21
2018-11-14T19:37:53.672Z,10.21
2018-11-14T19:40:27.162Z,10.24
2018-11-14T19:42:56.679Z,10.15
2018-11-14T19:45:26.075Z,10.15
2018-11-14T19:47:54.357Z,10.11
2018-11-14T19:50:22.983Z,10.09
2018-11-14T19:52:51.432Z,10.06
2018-11-14T19:55:21.024Z,10.10
2018-11-14T19:57:50.163Z,10.09
2018-11-14T20:00:24.850Z,10.13
2018-11-14T20:02:52.962Z,10.22
2018-11-14T20:05:21.512Z,10.16
2018-11-14T20:07:49.696Z,10.14
2018-11-14T20:10:19.115Z,10.13
2018-11-14T20:12:47.646Z,10.10
2018-11-14T20:15:17.188Z,10.12
2018-11-14T20:17:45.783Z,10.11
2018-11-14T20:20:20.498Z,10.10
2018-11-14T20:22:48.662Z,10.15
2018-11-14T20:25:16.746Z,10.12
2018-11-14T20:27:45.316Z,10.19
2018-11-14T20:30:20.682Z,10.12
2018-11-14T20:32:49.355Z,10.08
2018-11-14T20:35:18.665Z,10.09
2018-11-14T20:37:46.737Z,10.08
2018-11-14T20:40:16.037Z,10.10
2018-11-14T20:42:44.522Z,10.10
2018-11-14T20:45:15.228Z,10.16
2018-11-14T20:47:43.315Z,10.10
2018-11-14T20:50:14.982Z,10.08
2018-11-14T20:52:43.547Z,9.89
2018-11-14T20:55:17.679Z,9.84
2018-11-14T20:57:45.803Z,9.94
2018-11-14T21:00:21.932Z,9.81
2018-11-14T21:02:50.378Z,9.80
2018-11-14T21:05:18.539Z,9.70
2018-11-14T21:07:46.648Z,9.69
2018-11-14T21:10:16.013Z,9.77
2018-11-14T21:12:44.275Z,9.73
2018-11-14T21:15:15.385Z,9.68
2018-11-14T21:17:43.595Z,9.69
2018-11-14T21:20:11.803Z,9.71
2018-11-14T21:22:40.502Z,9.67
2018-11-14T21:25:10.246Z,9.60
2018-11-14T21:27:38.547Z,9.54
2018-11-14T21:30:08.575Z,9.62
2018-11-14T21:32:36.864Z,9.63
2018-11-14T21:35:07.086Z,9.63
2018-11-14T21:37:35.161Z,9.71
2018-11-14T21:40:03.524Z,9.64
2018-11-14T21:42:31.500Z,9.69
2018-11-14T21:44:59.588Z,9.71
2018-11-14T21:47:33.325Z,9.76
2018-11-14T21:50:01.548Z,9.71
2018-11-14T21:52:29.643Z,9.61
2018-11-14T21:54:57.723Z,9.71
2018-11-14T21:57:25.793Z,9.65
2018-11-14T21:59:54.076Z,9.59
2018-11-14T22:02:22.020Z,9.64
2018-11-14T22:04:50.133Z,9.68
2018-11-14T22:07:18.212Z,9.71
2018-11-14T22:09:46.289Z,9.67
2018-11-14T22:12:14.368Z,9.72
2018-11-14T22:14:42.436Z,9.61
2018-11-14T22:17:10.518Z,9.58
2018-11-14T22:19:38.588Z,9.54
2018-11-14T22:22:06.658Z,9.49
2018-11-14T22:24:34.732Z,9.54
2018-11-14T22:27:02.813Z,9.49
2018-11-14T22:29:30.908Z,9.54
2018-11-14T22:31:58.996Z,9.65
2018-11-14T22:34:27.072Z,9.63
2018-11-14T22:36:55.199Z,9.65
2018-11-14T22:39:23.283Z,9.59
2018-11-14T22:41:51.372Z,9.68
2018-11-14T22:44:19.456Z,9.59
2018-11-14T22:46:47.543Z,9.71
2018-11-14T22:49:15.624Z,9.66
2018-11-14T22:51:43.740Z,9.65
2018-11-14T22:54:11.825Z,9.60
2018-11-14T22:56:39.905Z,9.62
2018-11-14T22:59:08.000Z,9.67
2018-11-14T23:01:36.117Z,9.61
2018-11-14T23:04:04.339Z,9.68
2018-11-14T23:06:32.427Z,9.54
2018-11-14T23:09:00.518Z,9.58
2018-11-14T23:11:28.602Z,9.74
2018-11-14T23:13:56.695Z,9.61
2018-11-14T23:16:24.770Z,9.54
2018-11-14T23:18:52.863Z,9.53
2018-11-14T23:21:20.962Z,9.61
2018-11-14T23:23:49.048Z,9.69
2018-11-14T23:26:17.142Z,9.63
2018-11-14T23:28:45.232Z,9.70
2018-11-14T23:31:13.299Z,9.75
2018-11-14T23:33:41.380Z,9.66
2018-11-14T23:36:09.447Z,9.67
2018-11-14T23:38:37.533Z,9.73
2018-11-14T23:41:05.906Z,9.67
2018-11-14T23:43:33.984Z,9.72
2018-11-14T23:46:02.057Z,9.68
2018-11-14T23:48:30.131Z,9.68
2018-11-14T23:50:58.204Z,9.74
2018-11-14T23:53:26.279Z,9.77
2018-11-14T23:55:54.361Z,9.83
2018-11-14T23:58:22.449Z,9.92
